Latest Weather Observations for Outer Harbor (Black Pole)

IDS60801

Issued at 6:31 pm CDT Wednesday 18 January 2017 (issued every 30 minutes, with the page automatically refreshed every 10 minutes)

About weather observations | Map of weather stations | Latest weather observations for SA | Other Formats
Station Details ID: 023052 Name: BLACK POLE Lat: -34.73 Lon: 138.47 Height: 6.27 m
Data from the previous 72 hours. | See also: Recent months for locations in South Australia
Date/Time
CDT
Temp
°C
App
Temp
°C
Dew
Point
°C
Rel
Hum
%
Delta-T
°C
Wind Press
QNH
hPa
Press
MSL
hPa
Rain since
9am
mm
Dir  Spd
km/h
Gust
km/h
Spd
kts
Gust
kts
18/06:00pm - - - - - ESE 20 26 11 14 - - -
18/05:30pm - - - - - SE 15 19 8 10 - - -
18/05:00pm - - - - - SSW 17 22 9 12 - - -
18/04:30pm - - - - - SSW 22 28 12 15 - - -
18/04:00pm - - - - - SSW 24 30 13 16 - - -
18/03:30pm - - - - - SSW 24 28 13 15 - - -
18/03:00pm - - - - - SW 24 28 13 15 - - -
18/02:30pm - - - - - SSW 22 26 12 14 - - -
18/02:00pm - - - - - SSW 19 24 10 13 - - -
18/01:30pm - - - - - SW 11 15 6 8 - - -
18/01:00pm - - - - - SW 11 17 6 9 - - -
18/12:30pm - - - - - SE 9 15 5 8 - - -
18/12:00pm - - - - - SE 13 17 7 9 - - -
18/11:30am - - - - - ESE 19 24 10 13 - - -
18/11:00am - - - - - ESE 17 22 9 12 - - -
18/10:30am - - - - - SE 17 24 9 13 - - -
18/10:00am - - - - - ESE 20 26 11 14 - - -
18/09:30am - - - - - SE 19 24 10 13 - - -
18/09:00am - - - - - SE 20 24 11 13 - - -
18/08:30am - - - - - SE 22 28 12 15 - - -
18/08:00am - - - - - SSE 26 32 14 17 - - -
18/07:30am - - - - - SSE 22 28 12 15 - - -
18/07:00am - - - - - SSE 20 26 11 14 - - -
18/06:30am - - - - - SSE 17 24 9 13 - - -
18/06:00am - - - - - SE 13 17 7 9 - - -
18/05:30am - - - - - SE 13 15 7 8 - - -
18/05:00am - - - - - ESE 17 20 9 11 - - -
18/04:30am - - - - - E 7 13 4 7 - - -
18/04:00am - - - - - NE 13 17 7 9 - - -
18/03:30am - - - - - E 11 17 6 9 - - -
18/03:00am - - - - - S 17 22 9 12 - - -
18/02:30am - - - - - S 20 24 11 13 - - -
18/02:00am - - - - - ESE 9 15 5 8 - - -
18/01:30am - - - - - ESE 9 13 5 7 - - -
18/01:00am - - - - - S 28 33 15 18 - - -
18/12:30am - - - - - S 28 32 15 17 - - -
18/12:00am - - - - - SW 17 20 9 11 - - -
 
Date/Time
CDT
Temp
°C
App
Temp
°C
Dew
Point
°C
Rel
Hum
%
Delta-T
°C
Wind Press
QNH
hPa
Press
MSL
hPa
Rain since
9am
mm
Dir  Spd
km/h
Gust
km/h
Spd
kts
Gust
kts
17/11:30pm - - - - - S 4 7 2 4 - - -
17/11:00pm - - - - - SSE 15 20 8 11 - - -
17/10:30pm - - - - - SSE 26 32 14 17 - - -
17/10:00pm - - - - - SSE 39 46 21 25 - - -
17/09:30pm - - - - - S 44 54 24 29 - - -
17/09:00pm - - - - - S 57 70 31 38 - - -
17/08:30pm - - - - - SSW 56 67 30 36 - - -
17/08:00pm - - - - - SSW 44 56 24 30 - - -
17/07:30pm - - - - - SSW 44 54 24 29 - - -
17/07:22pm - - - - - S 28 48 15 26 - - -
17/07:00pm - - - - - S 28 32 15 17 - - -
17/06:30pm - - - - - S 28 30 15 16 - - -
17/06:00pm - - - - - S 24 26 13 14 - - -
17/05:30pm - - - - - S 22 24 12 13 - - -
17/05:00pm - - - - - SW 9 22 5 12 - - -
17/04:30pm - - - - - W 7 15 4 8 - - -
17/04:00pm - - - - - NW 9 9 5 5 - - -
17/03:30pm - - - - - NW 15 17 8 9 - - -
17/03:00pm - - - - - NW 17 19 9 10 - - -
17/02:30pm - - - - - NW 19 20 10 11 - - -
17/02:00pm - - - - - NW 19 20 10 11 - - -
17/01:30pm - - - - - NW 19 20 10 11 - - -
17/01:00pm - - - - - NW 17 19 9 10 - - -
17/12:30pm - - - - - NW 9 13 5 7 - - -
17/12:00pm - - - - - NW 7 7 4 4 - - -
17/11:30am - - - - - W 6 7 3 4 - - -
17/11:00am - - - - - SW 4 6 2 3 - - -
17/10:30am - - - - - NNW 6 7 3 4 - - -
17/10:00am - - - - - NNE 13 13 7 7 - - -
17/09:30am - - - - - NE 11 13 6 7 - - -
17/09:00am - - - - - ENE 9 11 5 6 - - -
17/08:30am - - - - - NE 15 19 8 10 - - -
17/08:00am - - - - - NNE 17 19 9 10 - - -
17/07:30am - - - - - NE 15 19 8 10 - - -
17/07:00am - - - - - NE 15 17 8 9 - - -
17/06:30am - - - - - NNE 13 15 7 8 - - -
17/06:00am - - - - - NE 15 17 8 9 - - -
17/05:30am - - - - - NNE 13 19 7 10 - - -
17/05:00am - - - - - NNW 7 9 4 5 - - -
17/04:30am - - - - - N 9 11 5 6 - - -
17/04:00am - - - - - N 11 15 6 8 - - -
17/03:30am - - - - - NNW 7 7 4 4 - - -
17/03:00am - - - - - NNE 9 11 5 6 - - -
17/02:30am - - - - - NNE 7 9 4 5 - - -
17/02:00am - - - - - N 7 9 4 5 - - -
17/01:30am - - - - - SSW 6 7 3 4 - - -
17/01:00am - - - - - SSW 6 7 3 4 - - -
17/12:30am - - - - - SSW 4 6 2 3 - - -
17/12:00am - - - - - SSE 6 6 3 3 - - -
 
Date/Time
CDT
Temp
°C
App
Temp
°C
Dew
Point
°C
Rel
Hum
%
Delta-T
°C
Wind Press
QNH
hPa
Press
MSL
hPa
Rain since
9am
mm
Dir  Spd
km/h
Gust
km/h
Spd
kts
Gust
kts
16/11:30pm - - - - - ENE 7 11 4 6 - - -
16/11:00pm - - - - - ENE 9 15 5 8 - - -
16/10:30pm - - - - - S 6 7 3 4 - - -
16/10:00pm - - - - - SE 7 7 4 4 - - -
16/09:30pm - - - - - SE 9 11 5 6 - - -
16/09:00pm - - - - - ESE 13 13 7 7 - - -
16/08:30pm - - - - - ESE 11 13 6 7 - - -
16/08:00pm - - - - - SE 9 13 5 7 - - -
16/07:30pm - - - - - SSE 13 15 7 8 - - -
16/07:00pm - - - - - S 17 19 9 10 - - -
16/06:30pm - - - - - S 11 15 6 8 - - -
16/06:00pm - - - - - S 7 9 4 5 - - -
16/05:30pm - - - - - SSE 6 6 3 3 - - -
16/05:00pm - - - - - SSE 7 7 4 4 - - -
16/04:30pm - - - - - SSE 6 6 3 3 - - -
16/04:00pm - - - - - SSE 4 6 2 3 - - -
16/03:30pm - - - - - SSE 7 9 4 5 - - -
16/03:00pm - - - - - E 4 4 2 2 - - -
16/02:30pm - - - - - ENE 2 4 1 2 - - -
16/02:00pm - - - - - SE 4 4 2 2 - - -
16/01:30pm - - - - - SW 4 6 2 3 - - -
16/01:00pm - - - - - SSW 6 7 3 4 - - -
16/12:30pm - - - - - SSW 7 9 4 5 - - -
16/12:00pm - - - - - SSW 7 9 4 5 - - -
16/11:30am - - - - - SW 6 7 3 4 - - -
16/11:00am - - - - - WSW 7 9 4 5 - - -
16/10:30am - - - - - WNW 7 9 4 5 - - -
16/10:00am - - - - - NNW 9 11 5 6 - - -
16/09:30am - - - - - NNE 13 15 7 8 - - -
16/09:00am - - - - - NNE 15 19 8 10 - - -
16/08:30am - - - - - NNE 15 19 8 10 - - -
16/08:00am - - - - - NNE 15 19 8 10 - - -
16/07:30am - - - - - NNE 17 20 9 11 - - -
16/07:00am - - - - - N 13 17 7 9 - - -
16/06:30am - - - - - N 13 17 7 9 - - -
16/06:00am - - - - - N 13 15 7 8 - - -
16/05:30am - - - - - NNE 11 13 6 7 - - -
16/05:00am - - - - - NNE 13 17 7 9 - - -
16/04:30am - - - - - NNE 13 15 7 8 - - -
16/04:00am - - - - - NNE 11 13 6 7 - - -
16/03:30am - - - - - NNE 13 15 7 8 - - -
16/03:00am - - - - - N 11 13 6 7 - - -
16/02:30am - - - - - N 6 9 3 5 - - -
16/02:00am - - - - - NNE 7 7 4 4 - - -
16/01:30am - - - - - E 7 11 4 6 - - -
16/01:00am - - - - - ESE 4 6 2 3 - - -
16/12:30am - - - - - SE 7 9 4 5 - - -
16/12:00am - - - - - SE 9 11 5 6 - - -
 
Date/Time
CDT
Temp
°C
App
Temp
°C
Dew
Point
°C
Rel
Hum
%
Delta-T
°C
Wind Press
QNH
hPa
Press
MSL
hPa
Rain since
9am
mm
Dir  Spd
km/h
Gust
km/h
Spd
kts
Gust
kts
15/11:30pm - - - - - SE 13 15 7 8 - - -
15/11:00pm - - - - - SE 15 17 8 9 - - -
15/10:30pm - - - - - SE 15 17 8 9 - - -
15/10:00pm - - - - - ESE 15 19 8 10 - - -
15/09:30pm - - - - - ESE 20 24 11 13 - - -
15/09:00pm - - - - - SSE 9 11 5 6 - - -
15/08:30pm - - - - - S 13 15 7 8 - - -
15/08:00pm - - - - - SSW 17 20 9 11 - - -
15/07:30pm - - - - - SSW 20 22 11 12 - - -
15/07:00pm - - - - - SSW 26 28 14 15 - - -

Other Formats:

Comma delimited format used in spreadsheet applications
http://www.bom.gov.au/fwo/IDS60801/IDS60801.95675.axf

JavaScript Object Notation format (JSON) in row-major order
http://www.bom.gov.au/fwo/IDS60801/IDS60801.95675.json